Data for 10/06/2016

Time Sea-Level Adjusted Pressure Absolute Pressure Temperature Relative Humidity Dew Point   
(mb) (inHg) (mb) (inHg) (C) (F) (%) (C) (F)
00:05 1019 30.09 849 25.07 2.4 36.3 83 -0.1 31.8
00:10 1019 30.09 849 25.07 2.5 36.5 84 0 32
00:15 1019 30.09 849 25.07 2.6 36.7 83 0 32
00:20 1019 30.09 849 25.07 2.8 37 82 0.1 32.1
00:25 1020 30.12 849 25.07 2.9 37.1 83 0.2 32.4
00:30 1020 30.12 849 25.07 2.9 37.3 84 0.4 32.8
00:35 1020 30.12 849 25.07 2.9 37.2 86 0.8 33.5
00:40 1020 30.12 849 25.07 2.6 36.6 87 0.7 33.2
00:45 1020 30.12 849 25.07 2.2 36 88 0.4 32.8
00:50 1020 30.12 849 25.07 1.9 35.4 90 0.5 32.8
00:55 1020 30.12 849 25.07 1.7 35.1 90 0.2 32.4
01:00 1019 30.09 849 25.07 1.4 34.5 91 0 32.1
01:05 1019 30.09 849 25.07 1.2 34.1 92 -0.1 31.9
01:10 1019 30.09 849 25.07 1 33.8 92 -0.1 31.8
01:15 1019 30.09 849 25.07 1 33.8 93 -0 31.9
01:20 1019 30.09 849 25.07 1 33.8 93 -0.1 31.9
01:25 1019 30.09 849 25.07 1 33.7 93 -0 31.9
01:30 1019 30.09 849 25.07 1 33.8 93 -0 32
01:35 1019 30.09 849 25.07 1 33.7 93 -0 31.9
01:40 1019 30.09 849 25.07 1 33.7 93 -0 31.9
01:45 1019 30.09 849 25.07 1 33.8 93 -0 32
01:50 1019 30.09 849 25.07 0.9 33.7 93 -0.1 31.9
01:55 1019 30.09 849 25.07 0.9 33.6 93 -0.1 31.7
02:00 1019 30.09 848 25.04 0.8 33.5 93 -0.1 31.7
02:05 1019 30.09 848 25.04 0.9 33.5 93 -0.1 31.8
02:10 1019 30.09 849 25.07 0.9 33.5 93 -0.1 31.8
02:15 1019 30.09 849 25.07 0.9 33.6 93 -0.2 31.7
02:20 1019 30.09 849 25.07 0.9 33.6 93 -0.1 31.8
02:25 1019 30.09 849 25.07 1 33.7 93 -0.1 31.8
02:30 1019 30.09 848 25.04 1.1 33.9 92 -0.1 31.9
02:35 1019 30.09 848 25.04 1.2 34.2 91 -0.1 31.9
02:40 1019 30.09 848 25.04 1.3 34.3 91 0 32
02:45 1019 30.09 848 25.04 1.4 34.5 91 0 32
02:50 1019 30.09 848 25.04 1.5 34.7 91 0.1 32.2
02:55 1019 30.09 848 25.04 1.4 34.5 90 0 32
03:00 1019 30.09 848 25.04 1.4 34.6 90 0 32
03:05 1019 30.09 848 25.04 1.5 34.6 90 -0 32
03:10 1019 30.09 848 25.04 1.5 34.8 90 0.1 32.2
03:15 1019 30.09 848 25.04 1.6 34.8 90 0.1 32.2
03:20 1019 30.09 848 25.04 1.5 34.7 90 0.1 32.2
03:25 1019 30.09 848 25.04 1.5 34.7 90 0.1 32.1
03:30 1019 30.09 848 25.04 1.4 34.6 90 0 32
03:35 1019 30.09 848 25.04 1.4 34.5 90 -0 32
03:40 1019 30.09 848 25.04 1.4 34.6 90 -0 31.9
03:45 1019 30.09 848 25.04 1.4 34.6 90 -0.1 31.8
03:50 1019 30.09 848 25.04 1.6 34.8 89 0 32
03:55 1019 30.09 848 25.04 1.6 34.8 90 0.1 32.1
04:00 1019 30.09 848 25.04 1.5 34.7 90 0.1 32.2
04:05 1019 30.09 848 25.04 1.6 34.9 90 0.2 32.3
04:10 1019 30.09 848 25.04 1.7 35 90 0.2 32.3
04:15 1019 30.09 848 25.04 1.8 35.2 89 0.2 32.4
04:20 1019 30.09 848 25.04 1.8 35.3 88 0.1 32.2
04:25 1019 30.09 848 25.04 1.8 35.2 89 0.2 32.4
04:30 1019 30.09 849 25.07 1.7 35 90 0.2 32.3
04:35 1019 30.09 849 25.07 1.7 35 89 0.1 32.2
04:40 1019 30.09 849 25.07 1.7 35.1 89 0.1 32.2
04:45 1019 30.09 849 25.07 1.7 35 89 0.1 32.2
04:50 1019 30.09 849 25.07 1.6 34.9 90 0.2 32.3
04:55 1020 30.12 849 25.07 1.6 34.8 90 0.2 32.3
05:00 1020 30.12 849 25.07 1.5 34.7 91 0.1 32.2
05:05 1020 30.12 849 25.07 1.5 34.7 91 0.2 32.3
05:10 1020 30.12 849 25.07 1.5 34.7 91 0.2 32.3
05:15 1020 30.12 849 25.07 1.6 34.8 91 0.2 32.4
05:20 1020 30.12 849 25.07 1.7 35 90 0.2 32.4
05:25 1020 30.12 849 25.07 1.7 35.1 90 0.3 32.5
05:30 1020 30.12 849 25.07 1.7 35 91 0.3 32.6
05:35 1020 30.12 849 25.07 1.5 34.8 91 0.2 32.4
05:40 1020 30.12 849 25.07 1.4 34.6 91 0.2 32.3
05:45 1020 30.12 849 25.07 1.4 34.5 92 0.2 32.3
05:50 1020 30.12 849 25.07 1.4 34.5 92 0.1 32.3
05:55 1020 30.12 849 25.07 1.4 34.5 92 0.2 32.3
06:00 1020 30.12 849 25.07 1.4 34.5 92 0.2 32.4
06:05 1020 30.12 849 25.07 1.4 34.6 92 0.3 32.5
06:10 1020 30.12 849 25.07 1.4 34.6 92 0.3 32.5
06:15 1020 30.12 849 25.07 1.4 34.5 92 0.2 32.4
06:20 1020 30.12 849 25.07 1.4 34.5 92 0.2 32.4
06:25 1020 30.12 849 25.07 1.4 34.5 92 0.2 32.4
06:30 1020 30.12 849 25.07 1.4 34.5 92 0.2 32.3
06:35 1020 30.12 849 25.07 1.4 34.5 92 0.1 32.3
06:40 1020 30.12 849 25.07 1.3 34.3 92 0.1 32.2
06:45 1020 30.12 849 25.07 1.3 34.4 92 0.1 32.3
06:50 1020 30.12 849 25.07 1.4 34.5 92 0.1 32.3
06:55 1020 30.12 849 25.07 1.4 34.5 91 0.1 32.2
07:00 1020 30.12 849 25.07 1.4 34.5 91 0.1 32.3
07:05 1020 30.12 849 25.07 1.5 34.7 91 0.2 32.3
07:10 1020 30.12 849 25.07 1.5 34.7 90 0.1 32.2
07:15 1020 30.12 849 25.07 1.4 34.4 90 -0.1 31.9
07:20 1020 30.12 849 25.07 1.3 34.3 91 -0 31.9
07:25 1020 30.12 849 25.07 1.3 34.3 91 -0.1 31.9
07:30 1020 30.12 850 25.1 1.3 34.4 91 -0 31.9
07:35 1020 30.12 850 25.1 1.3 34.4 91 -0 32
07:40 1020 30.12 850 25.1 1.3 34.3 91 -0.1 31.9
07:45 1020 30.12 850 25.1 1.3 34.3 90 -0.1 31.8
07:50 1020 30.12 850 25.1 1.2 34.2 90 -0.2 31.7
07:55 1021 30.15 850 25.1 1.1 34 90 -0.3 31.5
08:00 1021 30.15 850 25.1 1 33.8 91 -0.3 31.5
08:05 1021 30.15 850 25.1 0.9 33.7 92 -0.3 31.5
08:10 1021 30.15 850 25.1 0.9 33.7 92 -0.3 31.5
08:15 1021 30.15 850 25.1 1 33.7 92 -0.2 31.6
08:20 1021 30.15 850 25.1 1 33.9 92 -0.1 31.8
08:25 1021 30.15 850 25.1 1.1 33.9 92 -0 31.9
08:30 1021 30.15 850 25.1 1.2 34.2 92 0.1 32.1
08:35 1021 30.15 850 25.1 1.3 34.4 91 0.1 32.2
08:40 1021 30.15 850 25.1 1.7 35 89 -0 32
08:45 1021 30.15 850 25.1 2 35.6 87 0.1 32.2
08:50 1021 30.15 850 25.1 2.1 35.8 86 -0 32
08:55 1021 30.15 850 25.1 2.3 36.1 85 0 32
09:00 1021 30.15 850 25.1 2.5 36.5 85 0.3 32.5
09:05 1021 30.15 850 25.1 2.6 36.7 85 0.4 32.7
09:10 1021 30.15 850 25.1 2.8 37.1 88 1 33.7
09:15 1021 30.15 850 25.1 3 37.3 87 1 33.8
09:20 1021 30.15 850 25.1 3.1 37.5 86 1 33.8
09:25 1021 30.15 851 25.13 3.2 37.8 86 1.2 34.1
09:30 1021 30.15 851 25.13 3.4 38.2 84 1 33.8
09:35 1021 30.15 851 25.13 3.8 38.9 81 0.8 33.4
09:40 1021 30.15 851 25.13 4.1 39.5 80 1 33.9
09:45 1022 30.18 851 25.13 4.4 39.9 78 0.8 33.5
09:50 1022 30.18 851 25.13 4.1 39.5 80 0.9 33.7
09:55 1022 30.18 851 25.13 4.2 39.5 82 1.4 34.5
10:00 1022 30.18 851 25.13 4.6 40.2 80 1.5 34.7
10:05 1022 30.18 851 25.13 5 41.1 77 1.4 34.5
10:10 1022 30.18 851 25.13 5.5 41.9 77 1.7 35.1
10:15 1022 30.18 851 25.13 6.1 42.9 71 1.2 34.2
10:20 1022 30.18 851 25.13 6 42.8 74 1.8 35.2
10:25 1022 30.18 851 25.13 5.9 42.7 77 2.2 36
10:30 1022 30.18 851 25.13 6.1 42.9 76 2.2 35.9
10:35 1022 30.18 851 25.13 6.2 43.1 68 0.7 33.3
10:40 1022 30.18 851 25.13 5.9 42.6 70 0.9 33.7
10:45 1022 30.18 851 25.13 5.7 42.3 70 0.7 33.3
10:50 1022 30.18 851 25.13 5.6 42.1 69 0.3 32.6
10:55 1022 30.18 851 25.13 5.8 42.4 70 0.8 33.4
11:00 1022 30.18 851 25.13 5.9 42.7 70 0.9 33.6
11:05 1022 30.18 851 25.13 5.9 42.7 73 1.4 34.5
11:10 1022 30.18 851 25.13 6 42.9 72 1.4 34.5
11:15 1022 30.18 851 25.13 6.4 43.5 70 1.4 34.5
11:20 1022 30.18 851 25.13 6.5 43.7 68 1.1 34
11:25 1022 30.18 851 25.13 6.7 44 71 1.8 35.2
11:30 1022 30.18 851 25.13 6.6 43.9 69 1.3 34.3
11:35 1022 30.18 851 25.13 6.4 43.5 70 1.4 34.6
11:40 1022 30.18 851 25.13 6.9 44.4 68 1.4 34.6
11:45 1022 30.18 851 25.13 6.9 44.5 65 0.7 33.3
11:50 1022 30.18 851 25.13 6.9 44.5 65 0.9 33.7
11:55 1022 30.18 851 25.13 7.1 44.7 64 0.6 33.1
12:00 1022 30.18 851 25.13 7.4 45.4 61 0.3 32.6
12:05 1022 30.18 851 25.13 7.4 45.2 62 0.6 33.1
12:10 1022 30.18 851 25.13 7.3 45.2 63 0.9 33.5
12:15 1022 30.18 851 25.13 7.3 45.2 66 1.4 34.5
12:20 1022 30.18 851 25.13 7.2 44.9 67 1.6 34.8
12:25 1022 30.18 851 25.13 6.7 44.1 71 1.8 35.2
12:30 1022 30.18 851 25.13 6.8 44.2 69 1.5 34.8
12:35 1022 30.18 851 25.13 6.7 44.1 71 1.8 35.2
12:40 1022 30.18 851 25.13 6.3 43.4 70 1.3 34.3
12:45 1022 30.18 851 25.13 6.6 43.9 69 1.3 34.3
12:50 1022 30.18 851 25.13 6.4 43.5 68 1 33.8
12:55 1022 30.18 851 25.13 6.9 44.4 66 1 33.8
13:00 1022 30.18 851 25.13 6.6 43.9 66 0.8 33.4
13:05 1022 30.18 851 25.13 6.6 43.9 64 0.3 32.5
13:10 1022 30.18 851 25.13 6.5 43.8 68 1.1 34
13:15 1022 30.18 851 25.13 6.9 44.5 68 1.4 34.5
13:20 1022 30.18 851 25.13 7.2 45 64 1 33.8
13:25 1022 30.18 851 25.13 7.4 45.4 61 0.4 32.7
13:30 1022 30.18 851 25.13 7.8 46 58 0 32.1
13:35 1022 30.18 851 25.13 7.8 46.1 58 0.1 32.1
13:40 1022 30.18 851 25.13 8.3 47 55 -0.2 31.6
13:45 1022 30.18 851 25.13 9 48.2 52 -0.3 31.5
13:50 1022 30.18 851 25.13 9.1 48.3 48 -1.3 29.7
13:55 1022 30.18 851 25.13 9.2 48.6 50 -0.7 30.7
14:00 1022 30.18 851 25.13 9.3 48.8 51 -0.4 31.4
14:05 1022 30.18 851 25.13 9.5 49.1 49 -0.6 30.8
14:10 1022 30.18 851 25.13 10.2 50.3 47 -0.7 30.8
14:15 1022 30.18 851 25.13 10.1 50.2 45 -1.2 29.8
14:20 1022 30.18 851 25.13 10.3 50.5 44 -1.5 29.3
14:25 1022 30.18 851 25.13 9.6 49.4 46 -1.4 29.4
14:30 1022 30.18 851 25.13 9.3 48.7 46 -1.7 28.9
14:35 1022 30.18 851 25.13 9.2 48.6 48 -1.1 30
14:40 1022 30.18 851 25.13 9 48.1 50 -0.8 30.5
14:45 1022 30.18 851 25.13 9.2 48.5 46 -1.8 28.7
14:50 1022 30.18 851 25.13 9.3 48.8 45 -1.9 28.6
14:55 1022 30.18 851 25.13 9.2 48.6 46 -1.7 28.9
15:00 1022 30.18 851 25.13 9.5 49.1 45 -1.8 28.7
15:05 1022 30.18 851 25.13 10 49.9 45 -1.4 29.4
15:10 1022 30.18 851 25.13 10.1 50.1 40 -3 26.6
15:15 1022 30.18 851 25.13 10 50 43 -2.1 28.3
15:20 1022 30.18 851 25.13 10 50 38 -3.7 25.3
15:25 1022 30.18 851 25.13 10.6 51 45 -0.9 30.5
15:30 1022 30.18 851 25.13 9.7 49.4 46 -1.4 29.5
15:35 1022 30.18 851 25.13 8.6 47.5 51 -0.9 30.3
15:40 1022 30.18 851 25.13 7.7 45.9 53 -1.2 29.9
15:45 1022 30.18 851 25.13 7.3 45.2 59 -0.1 31.8
15:50 1022 30.18 851 25.13 8 46.3 59 0.5 32.8
15:55 1022 30.18 851 25.13 8 46.5 55 -0.5 31.2
16:00 1022 30.18 851 25.13 8 46.4 53 -0.9 30.4
16:05 1022 30.18 851 25.13 8.4 47 47 -2.1 28.2
16:10 1022 30.18 851 25.13 9.2 48.5 51 -0.3 31.4
16:15 1022 30.18 851 25.13 9 48.1 51 -0.5 31.2
16:20 1022 30.18 851 25.13 8.7 47.6 54 0 32.1
16:25 1022 30.18 851 25.13 8.2 46.8 53 -0.7 30.7
16:30 1022 30.18 851 25.13 7.7 45.9 54 -1.1 30.1
16:35 1022 30.18 851 25.13 7.6 45.7 53 -1.3 29.7
16:40 1022 30.18 851 25.13 7.6 45.7 52 -1.7 28.9
16:45 1022 30.18 851 25.13 7.5 45.5 52 -1.7 28.9
16:50 1022 30.18 851 25.13 7.7 45.8 49 -2.3 27.9
16:55 1022 30.18 851 25.13 7.6 45.6 51 -1.8 28.7
17:00 1022 30.18 851 25.13 7.5 45.6 54 -1.2 29.9
17:05 1022 30.18 851 25.13 7.5 45.5 53 -1.4 29.4
17:10 1022 30.18 851 25.13 7.6 45.7 53 -1.3 29.7
17:15 1022 30.18 851 25.13 7.7 45.9 55 -0.7 30.7
17:20 1022 30.18 851 25.13 7.7 45.9 57 -0.3 31.5
17:25 1022 30.18 851 25.13 7.6 45.8 59 0.2 32.4
17:30 1022 30.18 851 25.13 7.9 46.1 57 -0.2 31.6
17:35 1022 30.18 851 25.13 8.1 46.5 54 -0.7 30.7
17:40 1022 30.18 851 25.13 8.4 47.1 46 -2.6 27.4
17:45 1022 30.18 851 25.13 8.6 47.4 48 -1.9 28.5
17:50 1022 30.18 851 25.13 9 48.2 48 -1.3 29.6
17:55 1022 30.18 851 25.13 8.5 47.4 54 -0.3 31.5
18:00 1022 30.18 851 25.13 8.3 46.9 52 -0.9 30.4
18:05 1022 30.18 851 25.13 8.3 46.9 51 -1.3 29.6
18:10 1022 30.18 851 25.13 8.2 46.8 51 -1.3 29.7
18:15 1022 30.18 851 25.13 8.2 46.8 52 -0.9 30.3
18:20 1022 30.18 852 25.16 8.3 47 50 -1.5 29.3
18:25 1022 30.18 852 25.16 8.2 46.8 46 -2.6 27.2
18:30 1022 30.18 852 25.16 7.9 46.2 50 -1.9 28.6
18:35 1022 30.18 852 25.16 7.8 46 51 -1.6 29.1
18:40 1022 30.18 852 25.16 7.7 45.8 53 -1.2 29.8
18:45 1022 30.18 852 25.16 7.5 45.6 54 -1.2 29.9
18:50 1022 30.18 852 25.16 7.4 45.3 57 -0.6 30.9
18:55 1022 30.18 852 25.16 7.2 45 59 -0.3 31.5
19:00 1022 30.18 852 25.16 6.9 44.4 62 0.2 32.4
19:05 1022 30.18 852 25.16 6.5 43.7 66 0.6 33.1
19:10 1022 30.18 852 25.16 6.1 43.1 68 0.8 33.4
19:15 1022 30.18 852 25.16 5.8 42.5 69 0.5 32.9
19:20 1023 30.21 852 25.16 5.5 41.9 69 0.3 32.5
19:25 1023 30.21 852 25.16 5.1 41.2 73 0.7 33.3
19:30 1023 30.21 852 25.16 4.7 40.5 73 0.4 32.6
19:35 1023 30.21 852 25.16 4.5 40 72 -0.2 31.7
19:40 1023 30.21 852 25.16 4.2 39.5 72 -0.3 31.4
19:45 1023 30.21 852 25.16 4 39.3 71 -0.7 30.7
19:50 1023 30.21 852 25.16 4 39.2 71 -0.7 30.8
19:55 1023 30.21 852 25.16 3.9 39 72 -0.7 30.8
20:00 1023 30.21 852 25.16 3.8 38.8 73 -0.6 30.8
20:05 1023 30.21 852 25.16 3.7 38.7 73 -0.7 30.8
20:10 1023 30.21 852 25.16 3.6 38.5 74 -0.5 31.1
20:15 1023 30.21 852 25.16 3.5 38.3 74 -0.7 30.7
20:20 1023 30.21 852 25.16 3.6 38.5 73 -0.8 30.6
20:25 1023 30.21 852 25.16 3.7 38.6 73 -0.7 30.7
20:30 1023 30.21 852 25.16 3.6 38.5 73 -0.8 30.6
20:35 1023 30.21 852 25.16 3.6 38.4 74 -0.7 30.8
20:40 1023 30.21 852 25.16 3.5 38.2 74 -0.8 30.6
20:45 1023 30.21 852 25.16 3.4 38.1 73 -1 30.2
20:50 1023 30.21 852 25.16 3.5 38.3 73 -0.9 30.4
20:55 1023 30.21 852 25.16 3.4 38.1 73 -0.9 30.4
21:00 1023 30.21 852 25.16 3.3 38 73 -1 30.2
21:05 1023 30.21 852 25.16 3.2 37.8 74 -1 30.3
21:10 1023 30.21 852 25.16 3.3 37.9 73 -1.2 29.9
21:15 1023 30.21 852 25.16 3.3 37.9 73 -1.1 30
21:20 1023 30.21 852 25.16 3.1 37.6 74 -1.1 30.1
21:25 1023 30.21 852 25.16 3 37.3 73 -1.4 29.5
21:30 1023 30.21 852 25.16 3.2 37.7 71 -1.6 29.1
21:35 1023 30.21 852 25.16 3.5 38.2 71 -1.4 29.5
21:40 1023 30.21 852 25.16 3.4 38.1 72 -1.2 29.8
21:45 1023 30.21 852 25.16 3.4 38 70 -1.5 29.3
21:50 1023 30.21 852 25.16 3.4 38.1 72 -1.2 29.9
21:55 1023 30.21 852 25.16 3.3 38 71 -1.5 29.3
22:00 1023 30.21 852 25.16 3.4 38.2 70 -1.5 29.4
22:05 1023 30.21 852 25.16 3.6 38.5 70 -1.4 29.4
22:10 1023 30.21 852 25.16 3.5 38.4 70 -1.5 29.4
22:15 1023 30.21 852 25.16 3.5 38.2 70 -1.5 29.4
22:20 1023 30.21 852 25.16 3.5 38.3 70 -1.4 29.4
22:25 1023 30.21 852 25.16 3.5 38.3 69 -1.6 29.1
22:30 1023 30.21 852 25.16 3.5 38.3 70 -1.5 29.3
22:35 1023 30.21 852 25.16 3.5 38.3 68 -1.8 28.7
22:40 1023 30.21 852 25.16 3.7 38.6 68 -1.7 28.9
22:45 1023 30.21 852 25.16 3.5 38.4 68 -1.7 28.9
22:50 1023 30.21 852 25.16 3.5 38.4 69 -1.6 29
22:55 1023 30.21 852 25.16 3.4 38.2 70 -1.5 29.3
23:00 1023 30.21 852 25.16 3.3 38 69 -1.7 28.9
23:05 1023 30.21 852 25.16 3.2 37.8 70 -1.6 29.1
23:10 1023 30.21 852 25.16 3.1 37.6 71 -1.7 29
23:15 1023 30.21 852 25.16 3.1 37.6 72 -1.6 29.2
23:20 1023 30.21 852 25.16 3.2 37.7 70 -1.8 28.8
23:25 1023 30.21 852 25.16 3.1 37.6 71 -1.6 29.1
23:30 1023 30.21 852 25.16 3.1 37.5 70 -1.9 28.6
23:35 1023 30.21 852 25.16 3.1 37.5 71 -1.8 28.8
23:40 1023 30.21 852 25.16 2.9 37.3 71 -1.8 28.7
23:45 1023 30.21 852 25.16 2.9 37.1 71 -1.9 28.5
23:50 1023 30.21 852 25.16 2.9 37.1 72 -1.8 28.8
23:55 1023 30.21 852 25.16 2.8 37 71 -1.9 28.5
24:00 1023 30.21 852 25.16 2.8 37.1 71 -2 28.4